Time;durP1;ratioP1;P1;durP2;ratioP2;P2;SDS_P1;SDS_P2;PMS_P1;PMS_P2;Temp;Humidity;BMP_temperature;BMP_pressure;BME280_temperature;BME280_humidity;BME280_pressure;Samples;Min_cycle;Max_cycle;Signal;HPM_P1;HPM_P2
2021/06/21 00:02:15;;;;;;;11.95;3.40;;;17.20;99.90;;;;;;6273307;28;20040;-79
2021/06/21 00:05:15;;;;;;;8.30;3.72;;;17.20;99.90;;;;;;6252520;28;20108;-81
2021/06/21 00:08:16;;;;;;;11.23;3.50;;;17.10;99.90;;;;;;6251902;28;20036;-80
2021/06/21 00:11:17;;;;;;;9.23;3.70;;;17.10;99.90;;;;;;6251650;28;20036;-81
2021/06/21 00:14:17;;;;;;;11.75;3.25;;;16.90;99.90;;;;;;6235209;28;20025;-81
2021/06/21 00:17:18;;;;;;;8.38;3.20;;;16.80;99.90;;;;;;6250921;28;20031;-80
2021/06/21 00:20:19;;;;;;;10.10;3.25;;;16.70;99.90;;;;;;6294387;28;20036;-80
2021/06/21 00:23:20;;;;;;;8.77;3.83;;;17.00;99.90;;;;;;6276618;28;20025;-80
2021/06/21 00:26:20;;;;;;;6.47;3.38;;;16.60;99.90;;;;;;6276674;28;20459;-79
2021/06/21 00:29:21;;;;;;;14.95;3.28;;;16.80;99.90;;;;;;6294348;28;20047;-80
2021/06/21 00:32:22;;;;;;;8.80;3.10;;;16.40;99.90;;;;;;6262459;28;20033;-79
2021/06/21 00:35:22;;;;;;;11.02;3.17;;;16.80;99.90;;;;;;6251402;28;20395;-81
2021/06/21 00:38:23;;;;;;;14.52;3.97;;;16.60;99.90;;;;;;6251796;28;20064;-80
2021/06/21 00:41:24;;;;;;;6.55;2.67;;;16.80;99.90;;;;;;6251226;28;20112;-80
2021/06/21 00:44:24;;;;;;;10.43;3.13;;;16.90;99.90;;;;;;6250378;28;20029;-80
2021/06/21 00:47:25;;;;;;;8.10;3.55;;;16.50;99.90;;;;;;6251758;28;20458;-80
2021/06/21 00:50:26;;;;;;;5.82;2.85;;;16.90;99.90;;;;;;6251283;28;20025;-80
2021/06/21 00:53:27;;;;;;;12.30;3.65;;;16.50;99.90;;;;;;6260819;28;20410;-80
2021/06/21 00:56:28;;;;;;;15.45;3.10;;;16.90;99.90;;;;;;6250567;28;20028;-80
2021/06/21 00:59:28;;;;;;;10.68;3.00;;;17.20;99.90;;;;;;6267453;28;20105;-80
2021/06/21 01:02:29;;;;;;;8.88;3.20;;;16.60;99.90;;;;;;6268030;28;20047;-80
2021/06/21 01:05:34;;;;;;;9.90;4.05;;;;;;;;;;6267621;28;20037;-79
2021/06/21 01:08:34;;;;;;;6.72;2.75;;;16.80;99.90;;;;;;6267320;28;20025;-80
2021/06/21 01:12:00;;;;;;;9.65;3.58;;;16.70;99.90;;;;;;6267420;28;20387;-80
2021/06/21 01:15:07;;;;;;;9.65;3.03;;;16.60;99.90;;;;;;6252868;28;20091;-79
2021/06/21 01:18:10;;;;;;;12.38;2.72;;;16.90;99.90;;;;;;6243780;28;20467;-82
2021/06/21 01:21:25;;;;;;;9.20;3.50;;;16.80;99.90;;;;;;6261487;28;20520;-81
2021/06/21 01:24:31;;;;;;;8.48;3.50;;;16.80;99.90;;;;;;6268527;28;20119;-80
2021/06/21 01:27:59;;;;;;;10.80;3.35;;;16.80;99.90;;;;;;6266829;28;20039;-80
2021/06/21 01:31:19;;;;;;;7.63;3.65;;;16.80;99.90;;;;;;6268462;28;20032;-80
2021/06/21 01:34:23;;;;;;;10.05;3.28;;;16.80;99.90;;;;;;6266997;28;20453;-79
2021/06/21 01:37:24;;;;;;;9.75;3.63;;;16.80;99.90;;;;;;6266912;28;20036;-80
2021/06/21 01:40:24;;;;;;;8.10;3.47;;;16.80;99.90;;;;;;6256594;28;20139;-80
2021/06/21 01:43:29;;;;;;;11.35;3.10;;;16.80;99.90;;;;;;6241973;28;20124;-80
2021/06/21 01:46:31;;;;;;;7.32;3.38;;;16.80;99.90;;;;;;6241901;28;20031;-79
2021/06/21 01:49:34;;;;;;;5.97;3.28;;;16.80;99.90;;;;;;6225268;28;20057;-80
2021/06/21 01:52:37;;;;;;;14.85;3.55;;;16.70;99.90;;;;;;6241557;28;20136;-81
2021/06/21 01:55:39;;;;;;;7.55;3.33;;;16.70;99.90;;;;;;6242064;28;20033;-80
2021/06/21 01:58:40;;;;;;;10.20;2.97;;;16.90;99.90;;;;;;6241782;28;20047;-81
2021/06/21 02:01:43;;;;;;;7.57;2.90;;;16.90;99.90;;;;;;6248700;28;20082;-81
2021/06/21 02:04:43;;;;;;;10.25;3.17;;;17.00;99.90;;;;;;6266521;28;20032;-80
2021/06/21 02:07:45;;;;;;;9.05;3.10;;;17.10;99.90;;;;;;6241452;28;20391;-80
2021/06/21 02:10:49;;;;;;;12.13;3.72;;;17.10;99.90;;;;;;6241521;28;20057;-80
2021/06/21 02:13:50;;;;;;;9.80;3.85;;;17.20;99.90;;;;;;6243456;28;20128;-80
2021/06/21 02:16:51;;;;;;;8.95;3.28;;;17.20;99.90;;;;;;6246777;28;20490;-82
2021/06/21 02:19:55;;;;;;;12.00;3.42;;;17.30;99.90;;;;;;6246652;28;20034;-80
2021/06/21 02:22:56;;;;;;;7.13;3.13;;;17.20;99.90;;;;;;6246465;28;20091;-80
2021/06/21 02:26:00;;;;;;;14.65;3.30;;;17.10;99.90;;;;;;6261618;28;20025;-80
2021/06/21 02:29:00;;;;;;;10.32;3.22;;;17.00;99.90;;;;;;6271246;28;20048;-80
2021/06/21 02:32:01;;;;;;;10.60;3.35;;;17.00;99.90;;;;;;6271155;28;20048;-80
2021/06/21 02:35:04;;;;;;;7.20;3.13;;;17.00;99.90;;;;;;6271288;28;20029;-81
2021/06/21 02:38:05;;;;;;;8.57;3.10;;;17.10;99.90;;;;;;6259334;28;20025;-80
2021/06/21 02:41:05;;;;;;;10.90;3.35;;;16.80;99.90;;;;;;6245792;28;20029;-80
2021/06/21 02:44:06;;;;;;;8.32;3.05;;;17.20;99.90;;;;;;6245770;28;20375;-81
2021/06/21 02:47:07;;;;;;;13.77;3.75;;;16.90;99.90;;;;;;6246050;28;20567;-80
2021/06/21 02:50:08;;;;;;;9.25;3.03;;;16.60;99.90;;;;;;6245746;28;20572;-80
2021/06/21 02:53:14;;;;;;;10.18;3.33;;;16.80;99.90;;;;;;6245406;28;20061;-81
2021/06/21 02:56:31;;;;;;;9.35;3.75;;;16.80;99.90;;;;;;6247086;28;20060;-80
2021/06/21 02:59:34;;;;;;;15.27;3.50;;;16.70;99.90;;;;;;6246031;28;20100;-79
2021/06/21 03:02:36;;;;;;;6.88;3.00;;;16.60;99.90;;;;;;6245779;28;20624;-80
2021/06/21 03:05:38;;;;;;;9.27;3.70;;;16.60;99.90;;;;;;6265007;28;20174;-80
2021/06/21 03:08:39;;;;;;;14.07;4.22;;;16.60;99.90;;;;;;6270128;28;20029;-80
2021/06/21 03:11:40;;;;;;;8.05;2.80;;;16.50;99.90;;;;;;6271409;28;20025;-80
2021/06/21 03:14:46;;;;;;;10.97;3.77;;;16.50;99.90;;;;;;6270263;28;20032;-81
2021/06/21 03:17:49;;;;;;;6.97;2.97;;;16.50;99.90;;;;;;6270095;28;20478;-81
2021/06/21 03:20:54;;;;;;;6.38;2.92;;;16.50;99.90;;;;;;6270038;28;20907;-80
2021/06/21 03:23:55;;;;;;;11.57;3.50;;;16.50;99.90;;;;;;6245181;28;20037;-81
2021/06/21 03:26:56;;;;;;;9.80;4.20;;;16.60;99.90;;;;;;6246605;28;20060;-81
2021/06/21 03:29:57;;;;;;;9.90;3.08;;;16.60;99.90;;;;;;6262261;28;20041;-81
2021/06/21 03:32:58;;;;;;;6.15;3.15;;;16.50;99.90;;;;;;6245235;28;20091;-80
2021/06/21 03:35:58;;;;;;;8.77;3.25;;;16.50;99.90;;;;;;6244369;28;20025;-80
2021/06/21 03:38:59;;;;;;;10.88;4.18;;;16.50;99.90;;;;;;6241483;28;20029;-81
2021/06/21 03:41:59;;;;;;;8.23;3.22;;;16.50;99.90;;;;;;6266315;28;20386;-81
2021/06/21 03:45:00;;;;;;;6.43;2.65;;;16.50;99.90;;;;;;6269721;28;20033;-80
2021/06/21 03:48:01;;;;;;;7.93;3.50;;;16.50;99.90;;;;;;6252922;28;20071;-80
2021/06/21 03:51:01;;;;;;;9.13;3.05;;;16.50;99.90;;;;;;6271066;28;20787;-79
2021/06/21 03:54:02;;;;;;;7.43;3.10;;;16.50;99.90;;;;;;6241928;28;20545;-80
2021/06/21 03:57:04;;;;;;;7.25;3.00;;;16.50;99.90;;;;;;6231042;28;20021;-80
2021/06/21 04:00:13;;;;;;;9.23;3.97;;;16.50;99.90;;;;;;6242419;28;20494;-80
2021/06/21 04:03:14;;;;;;;10.45;3.33;;;16.50;99.90;;;;;;6214061;28;20641;-80
2021/06/21 04:06:14;;;;;;;9.15;3.22;;;16.50;99.90;;;;;;6251753;28;20033;-80
2021/06/21 04:09:15;;;;;;;6.72;3.10;;;16.60;99.90;;;;;;6235832;28;20083;-80
2021/06/21 04:12:16;;;;;;;9.13;3.25;;;16.60;99.90;;;;;;6252095;28;20480;-80
2021/06/21 04:15:18;;;;;;;8.23;3.28;;;16.70;99.90;;;;;;6235523;28;20032;-81
2021/06/21 04:18:19;;;;;;;9.45;3.10;;;16.70;99.90;;;;;;6246707;28;20075;-81
2021/06/21 04:21:20;;;;;;;10.23;3.53;;;16.70;99.90;;;;;;6227603;28;20482;-80
2021/06/21 04:24:21;;;;;;;7.05;3.50;;;16.80;99.90;;;;;;6227482;28;20478;-80
2021/06/21 04:27:21;;;;;;;5.10;3.08;;;16.90;99.90;;;;;;6227418;28;20029;-80
2021/06/21 04:30:23;;;;;;;9.43;3.38;;;17.10;99.90;;;;;;6227187;28;20041;-79
2021/06/21 04:33:23;;;;;;;9.13;3.63;;;17.40;99.90;;;;;;6248451;28;20038;-80
2021/06/21 04:36:24;;;;;;;9.40;4.03;;;17.80;99.90;;;;;;6226479;28;20025;-81
2021/06/21 04:39:25;;;;;;;6.53;3.13;;;18.00;99.90;;;;;;6245088;28;20065;-77
2021/06/21 04:42:25;;;;;;;8.15;3.30;;;18.50;99.90;;;;;;6244810;28;20119;-79
2021/06/21 04:45:26;;;;;;;7.75;2.90;;;19.00;99.90;;;;;;6226908;28;20025;-79
2021/06/21 04:48:26;;;;;;;9.98;3.10;;;19.20;99.90;;;;;;6227199;28;20029;-83
2021/06/21 04:51:31;;;;;;;7.03;3.00;;;19.50;99.90;;;;;;6247824;28;20534;-85
2021/06/21 04:54:31;;;;;;;8.40;3.17;;;19.60;99.90;;;;;;6252165;28;20036;-83
2021/06/21 04:57:41;;;;;;;9.13;3.10;;;19.70;99.90;;;;;;6234706;28;20352;-85
2021/06/21 05:00:41;;;;;;;11.43;3.42;;;20.00;99.90;;;;;;6213642;28;20102;-79
2021/06/21 05:03:45;;;;;;;4.68;2.92;;;20.30;99.90;;;;;;6225679;28;20033;-80
2021/06/21 05:06:46;;;;;;;5.65;2.60;;;20.70;99.90;;;;;;6229446;28;20383;-81
2021/06/21 05:09:49;;;;;;;9.07;3.33;;;21.30;99.90;;;;;;6213610;28;20025;-81
2021/06/21 05:12:53;;;;;;;8.55;3.30;;;21.20;99.90;;;;;;6230859;28;20124;-83
2021/06/21 05:15:53;;;;;;;7.65;3.47;;;24.20;99.90;;;;;;6226703;28;20084;-82
2021/06/21 05:18:54;;;;;;;6.93;2.83;;;21.60;99.90;;;;;;6250346;28;20029;-79
2021/06/21 05:21:55;;;;;;;11.23;3.17;;;21.20;99.70;;;;;;6268733;28;20119;-77
2021/06/21 05:24:57;;;;;;;9.70;2.95;;;21.00;99.90;;;;;;6268201;28;20107;-77
2021/06/21 05:27:58;;;;;;;5.18;2.85;;;20.70;99.90;;;;;;6250931;28;20132;-78
2021/06/21 05:30:58;;;;;;;8.50;3.67;;;20.50;99.90;;;;;;6250357;28;20035;-77
2021/06/21 05:33:59;;;;;;;9.05;3.35;;;21.20;99.90;;;;;;6250128;28;20395;-82
2021/06/21 05:37:00;;;;;;;5.15;3.13;;;21.90;99.90;;;;;;6233608;28;20037;-83
2021/06/21 05:40:01;;;;;;;11.73;3.33;;;21.90;99.90;;;;;;6225380;28;20033;-86
2021/06/21 05:43:01;;;;;;;7.20;3.92;;;22.70;99.90;;;;;;6216755;28;20284;-81
2021/06/21 05:46:03;;;;;;;7.90;3.40;;;;;;;;;;6228503;28;20060;-85
2021/06/21 05:49:04;;;;;;;7.97;3.50;;;;;;;;;;6250655;28;20025;-84
2021/06/21 05:52:05;;;;;;;10.52;2.83;;;22.80;99.90;;;;;;6233166;28;20487;-86
2021/06/21 05:55:06;;;;;;;8.80;2.75;;;22.50;99.90;;;;;;6261585;28;20033;-86
2021/06/21 05:58:07;;;;;;;5.35;2.40;;;22.90;99.90;;;;;;6275252;28;20049;-84
2021/06/21 06:01:07;;;;;;;5.95;3.00;;;22.70;99.90;;;;;;6278684;28;20028;-83
2021/06/21 06:04:08;;;;;;;6.63;2.97;;;;;;;;;;6250195;28;20394;-84
2021/06/21 06:07:10;;;;;;;8.85;3.47;;;;;;;;;;6262858;28;20518;-83
2021/06/21 06:10:11;;;;;;;6.03;3.03;;;22.20;99.90;;;;;;6251850;28;20112;-85
2021/06/21 06:13:11;;;;;;;6.40;2.75;;;22.50;99.90;;;;;;6260967;28;20046;-83
2021/06/21 06:16:12;;;;;;;8.18;2.95;;;;;;;;;;6282941;28;20111;-86
2021/06/21 06:19:13;;;;;;;5.05;2.67;;;;;;;;;;6266774;28;20033;-82
2021/06/21 06:22:14;;;;;;;9.03;3.00;;;;;;;;;;6279284;28;20033;-88
2021/06/21 06:25:16;;;;;;;6.40;2.60;;;24.80;99.90;;;;;;6266061;28;20056;-84
2021/06/21 06:28:17;;;;;;;10.48;3.25;;;;;;;;;;6266245;28;20463;-84
2021/06/21 06:31:18;;;;;;;7.20;2.83;;;26.00;94.80;;;;;;6265757;28;20040;-83
2021/06/21 06:34:18;;;;;;;6.10;3.00;;;26.10;93.80;;;;;;6271127;28;20038;-86
2021/06/21 06:37:19;;;;;;;12.07;4.03;;;26.80;92.70;;;;;;6258105;28;20369;-84
2021/06/21 06:40:20;;;;;;;10.23;3.07;;;;;;;;;;6273884;28;20116;-83
2021/06/21 06:43:21;;;;;;;7.23;2.60;;;28.10;88.70;;;;;;6253769;28;20430;-84
2021/06/21 06:46:21;;;;;;;7.80;2.70;;;28.50;86.10;;;;;;6266121;28;20025;-84
2021/06/21 06:49:22;;;;;;;7.67;3.27;;;29.00;82.70;;;;;;6247534;28;20040;-83
2021/06/21 06:52:23;;;;;;;7.77;3.20;;;28.60;79.70;;;;;;6259224;28;20506;-85
2021/06/21 06:58:43;;;;;;;5.95;2.72;;;27.00;83.00;;;;;;6290057;28;19952;-83
2021/06/21 07:01:45;;;;;;;7.33;2.73;;;26.70;87.00;;;;;;6236994;28;21168;-81
2021/06/21 07:04:46;;;;;;;5.25;2.80;;;26.20;87.70;;;;;;6253441;28;20033;-80
2021/06/21 07:07:46;;;;;;;7.72;2.60;;;26.50;88.30;;;;;;6253986;28;20116;-82
2021/06/21 07:10:47;;;;;;;6.77;2.60;;;27.30;85.30;;;;;;6259135;28;20020;-83
2021/06/21 07:13:47;;;;;;;5.93;2.90;;;28.30;80.20;;;;;;6254438;28;20045;-82
2021/06/21 07:16:48;;;;;;;5.30;2.80;;;28.30;78.30;;;;;;6242505;28;20179;-88
2021/06/21 07:19:49;;;;;;;5.28;2.63;;;28.70;77.00;;;;;;6251636;28;20024;-83
2021/06/21 07:22:56;;;;;;;7.80;2.70;;;29.00;77.30;;;;;;6258736;28;20067;-82
2021/06/21 07:25:57;;;;;;;8.10;2.85;;;29.00;72.80;;;;;;6278013;28;20029;-81
2021/06/21 07:28:57;;;;;;;7.03;2.60;;;29.60;72.30;;;;;;6278076;28;20036;-82
2021/06/21 07:31:58;;;;;;;3.80;2.50;;;30.00;72.00;;;;;;6277513;28;20408;-84
2021/06/21 07:34:58;;;;;;;4.67;2.63;;;30.40;70.60;;;;;;6260733;28;20033;-83
2021/06/21 07:37:59;;;;;;;4.93;2.40;;;31.00;87.30;;;;;;6263416;28;20111;-81
2021/06/21 07:40:59;;;;;;;4.17;2.40;;;31.50;70.80;;;;;;6252836;28;20398;-80
2021/06/21 07:44:00;;;;;;;3.80;2.50;;;31.10;68.20;;;;;;6252958;28;20036;-79
2021/06/21 07:47:01;;;;;;;7.57;3.03;;;31.30;66.80;;;;;;6253060;28;20036;-79
2021/06/21 07:50:02;;;;;;;5.15;2.63;;;31.30;63.90;;;;;;6252870;28;20025;-80
2021/06/21 07:53:03;;;;;;;5.10;2.45;;;31.40;65.30;;;;;;6252150;28;20848;-81
2021/06/21 07:56:05;;;;;;;6.30;2.92;;;31.50;65.80;;;;;;6252196;28;20065;-81
2021/06/21 07:59:06;;;;;;;7.03;3.05;;;31.70;61.80;;;;;;6252025;28;20033;-79
2021/06/21 08:02:07;;;;;;;6.13;2.80;;;30.70;64.50;;;;;;6269548;28;20028;-79
2021/06/21 08:05:08;;;;;;;6.60;2.80;;;30.50;66.20;;;;;;6255664;28;20024;-80
2021/06/21 08:08:08;;;;;;;3.17;2.03;;;30.90;65.00;;;;;;6270954;28;20433;-80
2021/06/21 08:11:12;;;;;;;4.87;2.43;;;31.40;65.90;;;;;;6254458;28;20033;-79
2021/06/21 08:14:13;;;;;;;3.53;2.42;;;31.10;64.40;;;;;;6251893;28;20049;-84
2021/06/21 08:17:13;;;;;;;6.97;3.40;;;30.70;63.90;;;;;;6235495;28;20532;-81
2021/06/21 08:20:14;;;;;;;6.47;2.63;;;30.70;63.90;;;;;;6251991;28;20057;-80
2021/06/21 08:23:15;;;;;;;7.05;2.78;;;31.00;65.80;;;;;;6251996;28;20111;-80
2021/06/21 08:26:16;;;;;;;4.75;2.75;;;31.20;65.40;;;;;;6269665;28;20033;-81
2021/06/21 08:29:16;;;;;;;4.93;2.93;;;31.30;67.60;;;;;;6249299;28;20463;-80
2021/06/21 08:32:17;;;;;;;7.07;2.67;;;31.60;64.60;;;;;;6269223;28;20303;-83
2021/06/21 08:35:18;;;;;;;6.75;2.72;;;31.50;63.40;;;;;;6251264;28;20029;-81
2021/06/21 08:38:19;;;;;;;6.10;2.90;;;32.10;63.10;;;;;;6251187;28;20126;-83
2021/06/21 08:41:20;;;;;;;4.40;2.67;;;32.20;64.30;;;;;;6251402;28;20037;-79
2021/06/21 08:44:20;;;;;;;7.50;2.80;;;32.10;64.20;;;;;;6291836;28;20369;-78
2021/06/21 08:47:21;;;;;;;4.25;2.80;;;32.10;61.80;;;;;;6280510;28;20706;-78
2021/06/21 08:50:22;;;;;;;6.13;3.03;;;32.10;63.50;;;;;;6269851;28;20608;-83
2021/06/21 08:53:23;;;;;;;4.93;3.13;;;32.30;63.00;;;;;;6253208;28;20063;-81
2021/06/21 08:56:23;;;;;;;8.25;3.17;;;32.40;60.70;;;;;;6251193;28;20033;-82
2021/06/21 08:59:25;;;;;;;4.33;2.30;;;32.30;60.40;;;;;;6261487;28;20036;-80
2021/06/21 09:02:26;;;;;;;5.47;2.58;;;32.50;62.30;;;;;;6234591;28;20039;-79
2021/06/21 09:05:27;;;;;;;5.65;3.10;;;32.30;61.20;;;;;;6250609;28;20029;-82
2021/06/21 09:08:28;;;;;;;6.13;2.60;;;32.60;60.80;;;;;;6251086;28;20028;-79
2021/06/21 09:11:47;;;;;;;4.28;2.50;;;32.40;59.70;;;;;;6268846;28;20025;-82
2021/06/21 09:14:48;;;;;;;5.93;2.50;;;32.60;58.00;;;;;;6250843;28;20041;-78
2021/06/21 09:17:48;;;;;;;4.95;2.72;;;32.40;55.30;;;;;;6250808;28;20025;-79
2021/06/21 09:20:49;;;;;;;4.38;2.80;;;32.40;57.00;;;;;;6250503;28;20028;-79
2021/06/21 09:23:51;;;;;;;4.38;2.95;;;32.80;58.30;;;;;;6268233;28;20025;-81
2021/06/21 09:26:56;;;;;;;5.25;2.92;;;32.70;55.60;;;;;;6250274;28;20403;-79
2021/06/21 09:30:01;;;;;;;9.55;3.53;;;31.20;90.30;;;;;;6250537;28;20108;-81
2021/06/21 09:33:02;;;;;;;5.22;2.70;;;30.90;79.50;;;;;;6243251;28;20068;-79
2021/06/21 09:36:03;;;;;;;5.70;3.25;;;30.70;91.70;;;;;;6275374;28;20109;-80
2021/06/21 09:39:26;;;;;;;5.60;3.10;;;30.70;71.60;;;;;;6275083;28;20033;-77
2021/06/21 09:42:27;;;;;;;7.50;3.03;;;;;;;;;;6274998;28;20116;-77
2021/06/21 09:45:28;;;;;;;4.03;2.80;;;30.80;70.80;;;;;;6292532;28;20772;-78
2021/06/21 09:48:52;;;;;;;5.03;2.70;;;30.60;74.50;;;;;;6292820;28;20082;-78
2021/06/21 09:51:53;;;;;;;4.53;2.30;;;30.50;74.90;;;;;;6268700;28;20311;-77
2021/06/21 09:54:54;;;;;;;5.90;2.67;;;30.70;62.10;;;;;;6246394;28;20367;-78
2021/06/21 09:58:12;;;;;;;5.10;2.70;;;31.10;62.60;;;;;;6233535;28;20043;-78
2021/06/21 10:01:13;;;;;;;7.20;3.08;;;32.10;60.60;;;;;;6232212;28;20278;-78
2021/06/21 10:04:23;;;;;;;5.13;2.80;;;32.20;55.10;;;;;;6225587;28;20030;-78
2021/06/21 10:07:36;;;;;;;5.95;2.92;;;32.60;58.20;;;;;;6225747;28;20033;-78
2021/06/21 10:10:37;;;;;;;8.68;2.75;;;31.70;57.90;;;;;;6208847;28;20028;-77
2021/06/21 10:13:38;;;;;;;6.32;2.63;;;31.70;61.20;;;;;;6231094;28;20041;-78
2021/06/21 10:16:38;;;;;;;2.97;2.50;;;31.70;60.50;;;;;;6249761;28;20037;-80
2021/06/21 10:19:39;;;;;;;4.63;2.67;;;31.90;61.40;;;;;;6249739;28;20037;-78
2021/06/21 10:22:40;;;;;;;4.85;2.90;;;32.10;60.60;;;;;;6249108;28;20033;-77
2021/06/21 10:25:40;;;;;;;5.90;2.42;;;32.70;56.90;;;;;;6233540;28;20037;-77
2021/06/21 10:28:41;;;;;;;4.15;2.47;;;33.00;57.30;;;;;;6225282;28;20037;-77
2021/06/21 10:31:42;;;;;;;4.57;3.05;;;33.10;58.70;;;;;;6208593;28;20037;-77
2021/06/21 10:34:43;;;;;;;4.50;2.38;;;32.90;59.50;;;;;;6226546;28;20048;-78
2021/06/21 10:37:57;;;;;;;2.88;2.10;;;32.90;57.70;;;;;;6229654;28;20037;-77
2021/06/21 10:41:03;;;;;;;4.40;2.60;;;33.00;56.30;;;;;;6229717;28;20507;-77
2021/06/21 10:44:03;;;;;;;4.43;2.63;;;32.80;57.50;;;;;;6247628;28;20029;-77
2021/06/21 10:47:27;;;;;;;4.88;2.58;;;32.90;54.40;;;;;;6247206;28;20531;-78
2021/06/21 10:50:28;;;;;;;4.90;2.75;;;33.00;55.90;;;;;;6229550;28;20107;-78
2021/06/21 10:53:52;;;;;;;2.95;2.10;;;33.00;58.90;;;;;;6246805;28;20499;-80
2021/06/21 10:56:54;;;;;;;5.20;2.85;;;32.80;56.60;;;;;;6212856;28;20127;-78
2021/06/21 11:00:11;;;;;;;3.95;2.35;;;32.80;59.20;;;;;;6228906;28;20033;-78
2021/06/21 11:03:29;;;;;;;3.40;2.45;;;32.50;57.00;;;;;;6213140;28;20117;-79
2021/06/21 11:06:33;;;;;;;3.60;2.50;;;32.20;58.30;;;;;;6246920;28;20056;-82
2021/06/21 11:09:51;;;;;;;4.35;2.50;;;32.20;59.40;;;;;;6229325;28;20485;-79
2021/06/21 11:12:51;;;;;;;2.38;2.17;;;32.20;58.90;;;;;;6230639;28;20475;-79
2021/06/21 11:19:24;;;;;;;3.20;2.22;;;32.20;61.20;;;;;;6246259;28;20040;-77
2021/06/21 11:22:45;;;;;;;2.55;2.10;;;32.20;60.20;;;;;;6229008;28;20040;-78
2021/06/21 11:25:49;;;;;;;2.58;2.05;;;31.90;60.00;;;;;;6252865;28;20039;-78
2021/06/21 11:28:50;;;;;;;5.18;2.78;;;31.80;58.60;;;;;;6253085;28;20060;-78
2021/06/21 11:31:58;;;;;;;2.83;2.53;;;31.80;61.40;;;;;;6253213;28;20424;-78
2021/06/21 11:35:03;;;;;;;3.58;2.70;;;31.60;60.70;;;;;;6236525;28;20036;-78
2021/06/21 11:38:22;;;;;;;6.90;2.85;;;31.50;62.40;;;;;;6228091;28;20391;-79
2021/06/21 11:41:26;;;;;;;2.67;2.40;;;31.50;62.80;;;;;;6211230;28;20037;-77
2021/06/21 11:44:54;;;;;;;5.40;3.05;;;31.30;58.70;;;;;;6211931;28;20430;-79
2021/06/21 11:47:55;;;;;;;3.78;2.40;;;31.30;61.70;;;;;;6225705;28;20037;-80
2021/06/21 11:50:55;;;;;;;3.17;2.53;;;31.20;60.70;;;;;;6235161;28;20079;-79
2021/06/21 11:53:56;;;;;;;6.18;2.70;;;31.20;61.20;;;;;;6236283;28;20295;-78
2021/06/21 11:56:59;;;;;;;3.67;2.47;;;31.10;62.00;;;;;;6238515;28;20123;-81
2021/06/21 12:00:05;;;;;;;4.97;2.55;;;30.70;59.70;;;;;;6233362;28;20025;-77
2021/06/21 12:03:10;;;;;;;2.47;2.20;;;30.70;72.70;;;;;;6237388;28;20028;-79
2021/06/21 12:06:17;;;;;;;3.53;2.53;;;30.40;61.80;;;;;;6212539;28;20087;-76
2021/06/21 12:09:18;;;;;;;2.63;2.33;;;30.40;64.00;;;;;;6238768;28;20021;-77
2021/06/21 12:12:26;;;;;;;3.57;2.20;;;30.40;73.50;;;;;;6229353;28;20073;-78
2021/06/21 12:15:32;;;;;;;6.38;2.78;;;30.50;87.10;;;;;;6211833;28;20032;-80
2021/06/21 12:18:32;;;;;;;4.03;2.50;;;30.30;71.40;;;;;;6230712;28;20033;-83
2021/06/21 12:21:40;;;;;;;5.03;2.97;;;30.00;70.80;;;;;;6227917;28;20483;-80
2021/06/21 12:24:40;;;;;;;3.70;2.70;;;30.10;61.50;;;;;;6227258;28;20136;-80
2021/06/21 12:27:41;;;;;;;2.40;2.13;;;30.00;61.80;;;;;;6246955;28;20395;-77
2021/06/21 12:30:54;;;;;;;2.13;1.93;;;29.90;63.50;;;;;;6234046;28;20033;-80
2021/06/21 12:33:55;;;;;;;3.10;2.40;;;29.80;61.00;;;;;;6252032;28;20428;-79
2021/06/21 12:36:56;;;;;;;3.65;2.30;;;29.90;62.80;;;;;;6245990;28;20021;-79
2021/06/21 12:40:00;;;;;;;1.98;1.80;;;29.90;59.60;;;;;;6229344;28;20387;-81
2021/06/21 12:43:00;;;;;;;2.65;2.17;;;29.70;58.10;;;;;;6228344;28;20025;-78
2021/06/21 12:46:01;;;;;;;2.30;2.10;;;29.80;58.70;;;;;;6210323;28;20060;-79
2021/06/21 12:49:16;;;;;;;3.50;2.28;;;29.70;59.90;;;;;;6242756;28;20418;-78
2021/06/21 12:52:18;;;;;;;4.35;2.13;;;29.80;61.00;;;;;;6238838;28;20368;-81
2021/06/21 12:55:24;;;;;;;2.20;2.00;;;29.70;59.50;;;;;;6271557;28;20028;-77
2021/06/21 12:58:31;;;;;;;2.70;2.08;;;29.90;59.90;;;;;;6267700;28;20028;-81
2021/06/21 13:01:33;;;;;;;3.28;2.10;;;29.90;60.80;;;;;;6244098;28;20048;-78
2021/06/21 13:04:34;;;;;;;3.33;2.30;;;30.00;57.20;;;;;;6268848;28;20032;-78
2021/06/21 13:07:34;;;;;;;4.93;2.15;;;29.90;57.70;;;;;;6250596;28;20080;-80
2021/06/21 13:10:35;;;;;;;2.17;2.00;;;29.90;58.80;;;;;;6268997;28;20037;-80
2021/06/21 13:13:35;;;;;;;1.90;1.80;;;29.90;58.00;;;;;;6268407;28;20047;-81
2021/06/21 13:16:37;;;;;;;2.20;2.00;;;30.00;57.00;;;;;;6269214;28;20064;-79
2021/06/21 13:19:49;;;;;;;1.92;1.83;;;30.10;57.70;;;;;;6269039;28;20111;-81
2021/06/21 13:22:55;;;;;;;2.65;2.45;;;30.20;54.60;;;;;;6256639;28;20061;-79
2021/06/21 13:25:58;;;;;;;4.88;2.35;;;30.30;79.40;;;;;;6250946;28;20352;-79
2021/06/21 13:29:15;;;;;;;2.75;2.30;;;30.30;58.30;;;;;;6266198;28;20028;-87
2021/06/21 13:32:29;;;;;;;1.92;1.83;;;30.50;56.30;;;;;;6250955;28;20041;-83
2021/06/21 13:35:30;;;;;;;4.03;2.05;;;30.60;57.40;;;;;;6256512;28;20046;-83
2021/06/21 13:38:32;;;;;;;3.20;2.40;;;30.70;56.70;;;;;;6285453;28;20033;-80
2021/06/21 13:41:33;;;;;;;3.67;2.40;;;30.70;58.00;;;;;;6250747;28;20462;-80
2021/06/21 13:44:34;;;;;;;2.63;2.30;;;30.30;58.50;;;;;;6250307;28;20043;-79
2021/06/21 13:47:43;;;;;;;2.58;2.38;;;30.30;59.50;;;;;;6250863;28;20036;-81
2021/06/21 13:50:54;;;;;;;2.97;2.30;;;30.40;59.20;;;;;;6261392;28;20033;-80
2021/06/21 13:54:04;;;;;;;2.58;2.33;;;29.30;68.80;;;;;;6246103;28;20521;-82
2021/06/21 13:57:08;;;;;;;4.83;2.40;;;29.60;60.40;;;;;;6250722;28;20112;-84
2021/06/21 14:00:26;;;;;;;5.20;2.50;;;29.50;73.20;;;;;;6252449;28;20127;-86
2021/06/21 14:03:29;;;;;;;2.47;2.28;;;29.20;59.40;;;;;;6254372;28;20492;-88
2021/06/21 14:06:35;;;;;;;4.95;2.45;;;30.00;64.50;;;;;;6256884;28;20025;-85
2021/06/21 14:09:36;;;;;;;4.05;2.60;;;29.90;64.80;;;;;;6271718;28;20033;-84
2021/06/21 14:12:36;;;;;;;2.70;2.38;;;30.30;58.50;;;;;;6290092;28;20029;-84
2021/06/21 14:15:37;;;;;;;2.73;2.43;;;30.40;59.20;;;;;;6254704;28;20044;-82
2021/06/21 14:18:38;;;;;;;6.87;3.40;;;30.40;57.90;;;;;;6238352;28;20040;-82
2021/06/21 14:21:40;;;;;;;4.00;2.30;;;30.50;60.10;;;;;;6254878;28;20120;-83
2021/06/21 14:24:41;;;;;;;3.50;2.42;;;30.50;58.10;;;;;;6254832;28;20296;-84
2021/06/21 14:27:42;;;;;;;2.28;2.05;;;30.40;57.30;;;;;;6238349;28;20031;-83
2021/06/21 14:30:43;;;;;;;2.30;2.17;;;30.30;57.10;;;;;;6254327;28;20040;-84
2021/06/21 14:33:43;;;;;;;2.15;1.90;;;30.30;58.00;;;;;;6237706;28;20036;-85
2021/06/21 14:36:46;;;;;;;3.17;2.47;;;29.90;57.30;;;;;;6253981;28;20475;-84
2021/06/21 14:39:46;;;;;;;4.00;2.22;;;29.60;56.50;;;;;;6257406;28;20559;-86
2021/06/21 14:42:47;;;;;;;3.53;2.53;;;29.40;57.00;;;;;;6254476;28;20033;-85
2021/06/21 14:45:49;;;;;;;3.90;2.40;;;28.90;59.00;;;;;;6247392;28;20150;-86
2021/06/21 14:48:53;;;;;;;2.92;2.15;;;28.40;63.60;;;;;;6254244;28;20056;-83
2021/06/21 14:51:54;;;;;;;4.50;2.47;;;27.70;84.60;;;;;;6237180;28;20045;-83
2021/06/21 14:54:55;;;;;;;3.33;2.70;;;;;;;;;;6268033;28;20136;-85
2021/06/21 14:57:55;;;;;;;6.82;3.05;;;27.50;65.50;;;;;;6271924;28;20052;-83
2021/06/21 15:00:56;;;;;;;3.03;2.70;;;27.10;68.80;;;;;;6241146;28;20037;-86
2021/06/21 15:03:56;;;;;;;3.17;2.30;;;27.00;67.50;;;;;;6248717;28;20083;-84
2021/06/21 15:06:57;;;;;;;4.97;2.70;;;26.90;69.00;;;;;;6237236;28;20466;-85
2021/06/21 15:09:58;;;;;;;3.07;2.37;;;27.10;69.50;;;;;;6252997;28;20104;-83
2021/06/21 15:12:59;;;;;;;6.57;2.83;;;26.80;69.00;;;;;;6253567;28;20049;-82
2021/06/21 15:15:59;;;;;;;5.60;2.70;;;26.80;69.40;;;;;;6258313;28;20044;-83
2021/06/21 15:19:00;;;;;;;4.00;2.60;;;26.70;69.60;;;;;;6245802;28;20028;-86
2021/06/21 15:22:00;;;;;;;6.47;2.80;;;26.40;71.40;;;;;;6253099;28;20497;-82
2021/06/21 15:25:02;;;;;;;4.40;3.07;;;26.40;70.50;;;;;;6277200;28;20379;-82
2021/06/21 15:28:03;;;;;;;;;;;26.40;71.50;;;;;;6266289;28;20078;-83
2021/06/21 15:31:04;;;;;;;3.58;2.55;;;26.20;72.00;;;;;;6229680;28;20602;-83
2021/06/21 15:34:05;;;;;;;3.63;2.60;;;26.10;72.70;;;;;;6247845;28;20037;-85
2021/06/21 15:37:05;;;;;;;4.80;3.30;;;25.80;73.50;;;;;;6249160;28;20029;-83
2021/06/21 15:40:08;;;;;;;5.03;2.63;;;25.60;75.30;;;;;;6252217;28;20550;-83
2021/06/21 15:43:09;;;;;;;5.05;2.75;;;25.50;75.20;;;;;;6239566;28;20029;-82
2021/06/21 15:46:09;;;;;;;5.37;2.87;;;25.40;75.00;;;;;;6277002;28;20071;-83
2021/06/21 15:49:10;;;;;;;5.17;2.90;;;25.00;75.80;;;;;;6258724;28;20029;-83
2021/06/21 15:52:10;;;;;;;3.80;2.77;;;25.10;77.00;;;;;;6277189;28;20056;-80
2021/06/21 15:55:13;;;;;;;4.37;3.10;;;25.00;77.30;;;;;;6265169;28;20395;-81
2021/06/21 15:58:15;;;;;;;6.80;3.00;;;25.00;77.30;;;;;;6253204;28;20048;-80
2021/06/21 16:01:16;;;;;;;3.25;2.72;;;24.80;78.30;;;;;;6235434;28;20021;-79
2021/06/21 16:04:17;;;;;;;4.43;3.03;;;24.70;80.20;;;;;;6252598;28;20047;-79